sensor_id;sensor_type;location;lat;lon;timestamp;P1;durP1;ratioP1;P2;durP2;ratioP2
53022;SDS011;38913;44.338;11.206;2023-05-19T00:00:53;6.38;;;3.15;;
53022;SDS011;38913;44.338;11.206;2023-05-19T00:03:18;9.70;;;3.60;;
53022;SDS011;38913;44.338;11.206;2023-05-19T00:05:45;7.20;;;3.40;;
53022;SDS011;38913;44.338;11.206;2023-05-19T00:08:12;5.50;;;3.28;;
53022;SDS011;38913;44.338;11.206;2023-05-19T00:10:40;3.80;;;3.08;;
53022;SDS011;38913;44.338;11.206;2023-05-19T00:13:05;9.10;;;3.42;;
53022;SDS011;38913;44.338;11.206;2023-05-19T00:15:31;6.05;;;3.50;;
53022;SDS011;38913;44.338;11.206;2023-05-19T00:17:56;6.88;;;3.35;;
53022;SDS011;38913;44.338;11.206;2023-05-19T00:20:22;10.95;;;3.42;;
53022;SDS011;38913;44.338;11.206;2023-05-19T00:22:48;5.00;;;3.83;;
53022;SDS011;38913;44.338;11.206;2023-05-19T00:25:14;9.18;;;5.00;;
53022;SDS011;38913;44.338;11.206;2023-05-19T00:27:39;6.30;;;3.80;;
53022;SDS011;38913;44.338;11.206;2023-05-19T00:30:05;5.97;;;3.53;;
53022;SDS011;38913;44.338;11.206;2023-05-19T00:32:30;6.97;;;3.20;;
53022;SDS011;38913;44.338;11.206;2023-05-19T00:34:55;5.23;;;3.53;;
53022;SDS011;38913;44.338;11.206;2023-05-19T00:37:21;5.03;;;3.33;;
53022;SDS011;38913;44.338;11.206;2023-05-19T00:39:47;6.07;;;3.97;;
53022;SDS011;38913;44.338;11.206;2023-05-19T00:42:12;6.65;;;3.60;;
53022;SDS011;38913;44.338;11.206;2023-05-19T00:44:39;4.60;;;3.58;;
53022;SDS011;38913;44.338;11.206;2023-05-19T00:47:04;5.20;;;3.10;;
53022;SDS011;38913;44.338;11.206;2023-05-19T00:49:29;3.75;;;3.28;;
53022;SDS011;38913;44.338;11.206;2023-05-19T00:51:55;6.17;;;3.70;;
53022;SDS011;38913;44.338;11.206;2023-05-19T00:54:20;5.35;;;3.72;;
53022;SDS011;38913;44.338;11.206;2023-05-19T00:56:45;6.88;;;3.30;;
53022;SDS011;38913;44.338;11.206;2023-05-19T00:59:11;6.05;;;3.58;;
53022;SDS011;38913;44.338;11.206;2023-05-19T01:01:36;7.78;;;4.22;;
53022;SDS011;38913;44.338;11.206;2023-05-19T01:04:01;6.87;;;4.33;;
53022;SDS011;38913;44.338;11.206;2023-05-19T01:06:27;7.28;;;3.95;;
53022;SDS011;38913;44.338;11.206;2023-05-19T01:08:53;4.68;;;4.00;;
53022;SDS011;38913;44.338;11.206;2023-05-19T01:11:19;5.10;;;3.90;;
53022;SDS011;38913;44.338;11.206;2023-05-19T01:13:45;6.53;;;3.80;;
53022;SDS011;38913;44.338;11.206;2023-05-19T01:16:11;7.37;;;3.47;;
53022;SDS011;38913;44.338;11.206;2023-05-19T01:18:46;4.93;;;3.58;;
53022;SDS011;38913;44.338;11.206;2023-05-19T01:23:55;4.57;;;3.72;;
53022;SDS011;38913;44.338;11.206;2023-05-19T01:26:37;7.15;;;3.50;;
53022;SDS011;38913;44.338;11.206;2023-05-19T01:31:49;3.33;;;2.90;;
53022;SDS011;38913;44.338;11.206;2023-05-19T01:34:16;5.63;;;3.10;;
53022;SDS011;38913;44.338;11.206;2023-05-19T01:36:42;6.50;;;3.25;;
53022;SDS011;38913;44.338;11.206;2023-05-19T01:39:08;6.50;;;2.90;;
53022;SDS011;38913;44.338;11.206;2023-05-19T01:41:34;8.93;;;3.38;;
53022;SDS011;38913;44.338;11.206;2023-05-19T01:44:00;7.60;;;3.20;;
53022;SDS011;38913;44.338;11.206;2023-05-19T01:46:26;12.43;;;3.63;;
53022;SDS011;38913;44.338;11.206;2023-05-19T01:48:51;5.33;;;3.37;;
53022;SDS011;38913;44.338;11.206;2023-05-19T01:51:16;5.38;;;3.80;;
53022;SDS011;38913;44.338;11.206;2023-05-19T01:53:41;6.20;;;3.40;;
53022;SDS011;38913;44.338;11.206;2023-05-19T01:56:07;5.40;;;3.20;;
53022;SDS011;38913;44.338;11.206;2023-05-19T01:58:45;5.80;;;3.30;;
53022;SDS011;38913;44.338;11.206;2023-05-19T02:01:33;4.68;;;2.83;;
53022;SDS011;38913;44.338;11.206;2023-05-19T02:11:37;7.53;;;4.00;;
53022;SDS011;38913;44.338;11.206;2023-05-19T02:14:24;5.82;;;3.33;;
53022;SDS011;38913;44.338;11.206;2023-05-19T02:16:50;6.32;;;3.95;;
53022;SDS011;38913;44.338;11.206;2023-05-19T02:19:49;4.03;;;3.28;;
53022;SDS011;38913;44.338;11.206;2023-05-19T02:22:07;7.55;;;3.58;;
53022;SDS011;38913;44.338;11.206;2023-05-19T02:24:32;6.37;;;3.93;;
53022;SDS011;38913;44.338;11.206;2023-05-19T02:26:57;5.47;;;3.42;;
53022;SDS011;38913;44.338;11.206;2023-05-19T02:29:23;4.97;;;3.17;;
53022;SDS011;38913;44.338;11.206;2023-05-19T02:31:48;4.10;;;3.50;;
53022;SDS011;38913;44.338;11.206;2023-05-19T02:34:13;4.30;;;3.40;;
53022;SDS011;38913;44.338;11.206;2023-05-19T02:36:40;5.50;;;3.50;;
53022;SDS011;38913;44.338;11.206;2023-05-19T02:39:06;4.78;;;3.50;;
53022;SDS011;38913;44.338;11.206;2023-05-19T02:41:32;5.93;;;3.72;;
53022;SDS011;38913;44.338;11.206;2023-05-19T02:43:57;8.27;;;3.40;;
53022;SDS011;38913;44.338;11.206;2023-05-19T02:46:23;7.43;;;3.30;;
53022;SDS011;38913;44.338;11.206;2023-05-19T02:48:49;5.95;;;3.50;;
53022;SDS011;38913;44.338;11.206;2023-05-19T02:51:14;4.53;;;3.20;;
53022;SDS011;38913;44.338;11.206;2023-05-19T02:53:40;5.68;;;3.30;;
53022;SDS011;38913;44.338;11.206;2023-05-19T02:56:05;4.97;;;3.50;;
53022;SDS011;38913;44.338;11.206;2023-05-19T02:58:30;4.75;;;3.20;;
53022;SDS011;38913;44.338;11.206;2023-05-19T03:00:56;4.27;;;3.30;;
53022;SDS011;38913;44.338;11.206;2023-05-19T03:03:21;5.20;;;3.60;;
53022;SDS011;38913;44.338;11.206;2023-05-19T03:05:46;6.10;;;3.10;;
53022;SDS011;38913;44.338;11.206;2023-05-19T03:08:11;4.90;;;3.25;;
53022;SDS011;38913;44.338;11.206;2023-05-19T03:10:37;5.60;;;3.20;;
53022;SDS011;38913;44.338;11.206;2023-05-19T03:13:02;4.88;;;3.10;;
53022;SDS011;38913;44.338;11.206;2023-05-19T03:15:27;5.30;;;3.33;;
53022;SDS011;38913;44.338;11.206;2023-05-19T03:17:53;4.03;;;3.13;;
53022;SDS011;38913;44.338;11.206;2023-05-19T03:20:18;6.90;;;3.27;;
53022;SDS011;38913;44.338;11.206;2023-05-19T03:22:43;7.40;;;3.03;;
53022;SDS011;38913;44.338;11.206;2023-05-19T03:25:08;2.77;;;2.40;;
53022;SDS011;38913;44.338;11.206;2023-05-19T03:27:34;7.80;;;2.80;;
53022;SDS011;38913;44.338;11.206;2023-05-19T03:29:59;3.00;;;2.57;;
53022;SDS011;38913;44.338;11.206;2023-05-19T03:32:24;3.58;;;2.67;;
53022;SDS011;38913;44.338;11.206;2023-05-19T03:34:49;4.53;;;2.73;;
53022;SDS011;38913;44.338;11.206;2023-05-19T03:37:15;3.70;;;2.80;;
53022;SDS011;38913;44.338;11.206;2023-05-19T03:39:40;3.80;;;2.40;;
53022;SDS011;38913;44.338;11.206;2023-05-19T03:42:05;2.80;;;2.47;;
53022;SDS011;38913;44.338;11.206;2023-05-19T03:44:31;5.22;;;2.40;;
53022;SDS011;38913;44.338;11.206;2023-05-19T03:46:56;6.23;;;2.87;;
53022;SDS011;38913;44.338;11.206;2023-05-19T03:49:21;4.20;;;2.80;;
53022;SDS011;38913;44.338;11.206;2023-05-19T03:51:47;6.53;;;3.00;;
53022;SDS011;38913;44.338;11.206;2023-05-19T03:54:12;4.95;;;2.38;;
53022;SDS011;38913;44.338;11.206;2023-05-19T03:56:37;3.57;;;2.80;;
53022;SDS011;38913;44.338;11.206;2023-05-19T03:59:03;3.42;;;2.53;;
53022;SDS011;38913;44.338;11.206;2023-05-19T04:01:31;4.72;;;2.70;;
53022;SDS011;38913;44.338;11.206;2023-05-19T04:03:56;5.15;;;2.85;;
53022;SDS011;38913;44.338;11.206;2023-05-19T04:06:21;6.87;;;2.77;;
53022;SDS011;38913;44.338;11.206;2023-05-19T04:08:47;4.97;;;2.50;;
53022;SDS011;38913;44.338;11.206;2023-05-19T04:11:12;6.57;;;2.75;;
53022;SDS011;38913;44.338;11.206;2023-05-19T04:13:38;3.92;;;2.75;;
53022;SDS011;38913;44.338;11.206;2023-05-19T04:16:03;3.63;;;2.20;;
53022;SDS011;38913;44.338;11.206;2023-05-19T04:18:28;3.97;;;2.50;;
53022;SDS011;38913;44.338;11.206;2023-05-19T04:20:54;3.67;;;2.20;;
53022;SDS011;38913;44.338;11.206;2023-05-19T04:23:19;3.58;;;2.30;;
53022;SDS011;38913;44.338;11.206;2023-05-19T04:25:44;3.83;;;2.50;;
53022;SDS011;38913;44.338;11.206;2023-05-19T04:28:12;5.55;;;2.30;;
53022;SDS011;38913;44.338;11.206;2023-05-19T04:30:38;5.22;;;2.17;;
53022;SDS011;38913;44.338;11.206;2023-05-19T04:33:03;3.25;;;2.50;;
53022;SDS011;38913;44.338;11.206;2023-05-19T04:35:29;4.50;;;2.97;;
53022;SDS011;38913;44.338;11.206;2023-05-19T04:37:54;3.53;;;2.70;;
53022;SDS011;38913;44.338;11.206;2023-05-19T04:40:19;4.20;;;2.70;;
53022;SDS011;38913;44.338;11.206;2023-05-19T04:42:47;2.90;;;2.30;;
53022;SDS011;38913;44.338;11.206;2023-05-19T04:45:13;3.45;;;2.30;;
53022;SDS011;38913;44.338;11.206;2023-05-19T04:47:39;5.50;;;2.30;;
53022;SDS011;38913;44.338;11.206;2023-05-19T04:50:05;4.80;;;2.80;;
53022;SDS011;38913;44.338;11.206;2023-05-19T04:52:31;4.82;;;2.63;;
53022;SDS011;38913;44.338;11.206;2023-05-19T04:54:56;4.75;;;2.60;;
53022;SDS011;38913;44.338;11.206;2023-05-19T04:57:21;6.60;;;2.57;;
53022;SDS011;38913;44.338;11.206;2023-05-19T04:59:47;4.33;;;2.70;;
53022;SDS011;38913;44.338;11.206;2023-05-19T05:02:13;4.78;;;3.13;;
53022;SDS011;38913;44.338;11.206;2023-05-19T05:04:38;4.70;;;2.90;;
53022;SDS011;38913;44.338;11.206;2023-05-19T05:07:06;4.32;;;2.80;;
53022;SDS011;38913;44.338;11.206;2023-05-19T05:09:31;4.40;;;2.53;;
53022;SDS011;38913;44.338;11.206;2023-05-19T05:11:57;6.25;;;3.03;;
53022;SDS011;38913;44.338;11.206;2023-05-19T05:14:22;4.88;;;2.90;;
53022;SDS011;38913;44.338;11.206;2023-05-19T05:16:48;5.07;;;3.13;;
53022;SDS011;38913;44.338;11.206;2023-05-19T05:19:13;5.22;;;2.78;;
53022;SDS011;38913;44.338;11.206;2023-05-19T05:21:39;3.42;;;2.72;;
53022;SDS011;38913;44.338;11.206;2023-05-19T05:24:05;4.32;;;2.75;;
53022;SDS011;38913;44.338;11.206;2023-05-19T05:26:32;4.22;;;3.10;;
53022;SDS011;38913;44.338;11.206;2023-05-19T05:28:57;3.58;;;2.55;;
53022;SDS011;38913;44.338;11.206;2023-05-19T05:31:22;3.40;;;2.60;;
53022;SDS011;38913;44.338;11.206;2023-05-19T05:33:48;9.03;;;3.10;;
53022;SDS011;38913;44.338;11.206;2023-05-19T05:36:13;3.33;;;2.45;;
53022;SDS011;38913;44.338;11.206;2023-05-19T05:38:38;4.43;;;3.22;;
53022;SDS011;38913;44.338;11.206;2023-05-19T05:41:03;5.30;;;3.00;;
53022;SDS011;38913;44.338;11.206;2023-05-19T05:43:29;3.38;;;3.08;;
53022;SDS011;38913;44.338;11.206;2023-05-19T05:45:55;4.22;;;3.00;;
53022;SDS011;38913;44.338;11.206;2023-05-19T05:48:20;4.57;;;2.80;;
53022;SDS011;38913;44.338;11.206;2023-05-19T05:50:45;3.92;;;3.10;;
53022;SDS011;38913;44.338;11.206;2023-05-19T05:53:15;4.10;;;3.17;;
53022;SDS011;38913;44.338;11.206;2023-05-19T05:55:41;3.35;;;2.72;;
53022;SDS011;38913;44.338;11.206;2023-05-19T05:58:07;3.65;;;2.90;;
53022;SDS011;38913;44.338;11.206;2023-05-19T06:00:35;14.98;;;3.67;;
53022;SDS011;38913;44.338;11.206;2023-05-19T06:03:00;5.93;;;2.80;;
53022;SDS011;38913;44.338;11.206;2023-05-19T06:05:28;3.10;;;2.40;;
53022;SDS011;38913;44.338;11.206;2023-05-19T06:07:53;3.43;;;2.80;;
53022;SDS011;38913;44.338;11.206;2023-05-19T06:10:18;6.67;;;2.73;;
53022;SDS011;38913;44.338;11.206;2023-05-19T06:12:43;4.35;;;2.72;;
53022;SDS011;38913;44.338;11.206;2023-05-19T06:15:09;4.27;;;2.50;;
53022;SDS011;38913;44.338;11.206;2023-05-19T06:17:34;4.93;;;2.95;;
53022;SDS011;38913;44.338;11.206;2023-05-19T06:20:00;4.00;;;2.65;;
53022;SDS011;38913;44.338;11.206;2023-05-19T06:22:26;5.57;;;3.17;;
53022;SDS011;38913;44.338;11.206;2023-05-19T06:24:52;4.32;;;2.97;;
53022;SDS011;38913;44.338;11.206;2023-05-19T06:27:17;4.97;;;3.15;;
53022;SDS011;38913;44.338;11.206;2023-05-19T06:29:43;5.28;;;2.80;;
53022;SDS011;38913;44.338;11.206;2023-05-19T06:32:08;4.63;;;2.80;;
53022;SDS011;38913;44.338;11.206;2023-05-19T06:34:33;3.33;;;2.83;;
53022;SDS011;38913;44.338;11.206;2023-05-19T06:36:58;4.93;;;2.77;;
53022;SDS011;38913;44.338;11.206;2023-05-19T06:39:26;3.13;;;2.55;;
53022;SDS011;38913;44.338;11.206;2023-05-19T06:41:51;4.65;;;2.80;;
53022;SDS011;38913;44.338;11.206;2023-05-19T06:44:16;3.30;;;2.57;;
53022;SDS011;38913;44.338;11.206;2023-05-19T06:46:41;3.83;;;2.70;;
53022;SDS011;38913;44.338;11.206;2023-05-19T06:49:08;4.72;;;2.70;;
53022;SDS011;38913;44.338;11.206;2023-05-19T06:51:33;3.03;;;2.40;;
53022;SDS011;38913;44.338;11.206;2023-05-19T06:53:59;3.20;;;2.72;;
53022;SDS011;38913;44.338;11.206;2023-05-19T06:56:24;2.97;;;2.67;;
53022;SDS011;38913;44.338;11.206;2023-05-19T06:58:49;3.67;;;2.60;;
53022;SDS011;38913;44.338;11.206;2023-05-19T07:01:15;3.35;;;2.50;;
53022;SDS011;38913;44.338;11.206;2023-05-19T07:03:40;3.27;;;2.10;;
53022;SDS011;38913;44.338;11.206;2023-05-19T07:06:05;3.83;;;2.60;;
53022;SDS011;38913;44.338;11.206;2023-05-19T07:08:31;3.08;;;2.55;;
53022;SDS011;38913;44.338;11.206;2023-05-19T07:10:56;3.87;;;2.70;;
53022;SDS011;38913;44.338;11.206;2023-05-19T07:13:21;4.40;;;2.77;;
53022;SDS011;38913;44.338;11.206;2023-05-19T07:15:46;3.22;;;2.22;;
53022;SDS011;38913;44.338;11.206;2023-05-19T07:18:16;4.22;;;2.72;;
53022;SDS011;38913;44.338;11.206;2023-05-19T07:20:41;3.10;;;2.30;;
53022;SDS011;38913;44.338;11.206;2023-05-19T07:23:06;3.47;;;2.80;;
53022;SDS011;38913;44.338;11.206;2023-05-19T07:25:32;5.27;;;2.60;;
53022;SDS011;38913;44.338;11.206;2023-05-19T07:27:57;3.47;;;2.35;;
53022;SDS011;38913;44.338;11.206;2023-05-19T07:30:22;4.43;;;2.40;;
53022;SDS011;38913;44.338;11.206;2023-05-19T07:32:48;3.97;;;3.00;;
53022;SDS011;38913;44.338;11.206;2023-05-19T07:35:13;2.57;;;2.37;;
53022;SDS011;38913;44.338;11.206;2023-05-19T07:37:38;10.87;;;2.63;;
53022;SDS011;38913;44.338;11.206;2023-05-19T07:40:04;2.80;;;2.40;;
53022;SDS011;38913;44.338;11.206;2023-05-19T07:42:30;5.80;;;2.30;;
53022;SDS011;38913;44.338;11.206;2023-05-19T07:44:56;3.78;;;2.42;;
53022;SDS011;38913;44.338;11.206;2023-05-19T07:47:21;5.73;;;3.10;;
53022;SDS011;38913;44.338;11.206;2023-05-19T07:49:46;4.30;;;2.80;;
53022;SDS011;38913;44.338;11.206;2023-05-19T07:52:11;4.32;;;2.53;;
53022;SDS011;38913;44.338;11.206;2023-05-19T07:54:37;4.30;;;2.90;;
53022;SDS011;38913;44.338;11.206;2023-05-19T07:57:02;3.97;;;3.30;;
53022;SDS011;38913;44.338;11.206;2023-05-19T07:59:27;3.47;;;2.83;;
53022;SDS011;38913;44.338;11.206;2023-05-19T08:01:52;4.10;;;3.13;;
53022;SDS011;38913;44.338;11.206;2023-05-19T08:04:18;4.47;;;3.10;;
53022;SDS011;38913;44.338;11.206;2023-05-19T08:06:43;4.13;;;3.17;;
53022;SDS011;38913;44.338;11.206;2023-05-19T08:09:09;6.37;;;3.60;;
53022;SDS011;38913;44.338;11.206;2023-05-19T08:11:34;7.25;;;3.45;;
53022;SDS011;38913;44.338;11.206;2023-05-19T08:14:00;5.20;;;3.50;;
53022;SDS011;38913;44.338;11.206;2023-05-19T08:16:25;5.50;;;3.43;;
53022;SDS011;38913;44.338;11.206;2023-05-19T08:18:50;5.37;;;4.17;;
53022;SDS011;38913;44.338;11.206;2023-05-19T08:21:16;6.30;;;3.67;;
53022;SDS011;38913;44.338;11.206;2023-05-19T08:23:41;5.13;;;3.57;;
53022;SDS011;38913;44.338;11.206;2023-05-19T08:26:06;4.27;;;3.27;;
53022;SDS011;38913;44.338;11.206;2023-05-19T08:28:31;4.93;;;3.53;;
53022;SDS011;38913;44.338;11.206;2023-05-19T08:30:57;6.57;;;3.57;;
53022;SDS011;38913;44.338;11.206;2023-05-19T08:33:22;6.38;;;3.92;;
53022;SDS011;38913;44.338;11.206;2023-05-19T08:35:47;5.40;;;3.53;;
53022;SDS011;38913;44.338;11.206;2023-05-19T08:38:13;4.33;;;3.07;;
53022;SDS011;38913;44.338;11.206;2023-05-19T08:40:40;5.83;;;4.17;;
53022;SDS011;38913;44.338;11.206;2023-05-19T08:43:05;5.35;;;4.07;;
53022;SDS011;38913;44.338;11.206;2023-05-19T08:45:31;4.97;;;3.83;;
53022;SDS011;38913;44.338;11.206;2023-05-19T08:47:58;5.25;;;3.65;;
53022;SDS011;38913;44.338;11.206;2023-05-19T08:50:26;5.22;;;3.70;;
53022;SDS011;38913;44.338;11.206;2023-05-19T08:53:00;5.30;;;3.90;;
53022;SDS011;38913;44.338;11.206;2023-05-19T08:58:22;5.15;;;4.28;;
53022;SDS011;38913;44.338;11.206;2023-05-19T09:00:48;5.68;;;3.83;;
53022;SDS011;38913;44.338;11.206;2023-05-19T09:03:14;4.85;;;4.10;;
53022;SDS011;38913;44.338;11.206;2023-05-19T09:05:40;7.20;;;4.30;;
53022;SDS011;38913;44.338;11.206;2023-05-19T09:08:05;5.82;;;4.20;;
53022;SDS011;38913;44.338;11.206;2023-05-19T09:10:30;4.70;;;3.50;;
53022;SDS011;38913;44.338;11.206;2023-05-19T09:12:55;6.17;;;3.97;;
53022;SDS011;38913;44.338;11.206;2023-05-19T09:15:21;5.00;;;3.77;;
53022;SDS011;38913;44.338;11.206;2023-05-19T09:17:49;4.63;;;3.60;;
53022;SDS011;38913;44.338;11.206;2023-05-19T09:20:15;6.68;;;3.47;;
53022;SDS011;38913;44.338;11.206;2023-05-19T09:22:41;4.70;;;3.22;;
53022;SDS011;38913;44.338;11.206;2023-05-19T09:25:16;3.53;;;3.08;;
53022;SDS011;38913;44.338;11.206;2023-05-19T09:27:41;3.25;;;2.38;;
53022;SDS011;38913;44.338;11.206;2023-05-19T09:30:07;3.30;;;3.00;;
53022;SDS011;38913;44.338;11.206;2023-05-19T09:32:33;4.45;;;2.88;;
53022;SDS011;38913;44.338;11.206;2023-05-19T09:35:00;3.40;;;2.80;;
53022;SDS011;38913;44.338;11.206;2023-05-19T09:37:26;3.10;;;2.80;;
53022;SDS011;38913;44.338;11.206;2023-05-19T09:39:51;2.80;;;2.60;;
53022;SDS011;38913;44.338;11.206;2023-05-19T09:42:24;3.40;;;3.10;;
53022;SDS011;38913;44.338;11.206;2023-05-19T09:45:03;3.40;;;3.10;;
53022;SDS011;38913;44.338;11.206;2023-05-19T09:47:35;4.30;;;3.03;;
53022;SDS011;38913;44.338;11.206;2023-05-19T09:50:04;3.28;;;2.45;;
53022;SDS011;38913;44.338;11.206;2023-05-19T09:52:29;3.30;;;3.00;;
53022;SDS011;38913;44.338;11.206;2023-05-19T09:54:55;3.15;;;2.60;;
53022;SDS011;38913;44.338;11.206;2023-05-19T09:57:24;3.92;;;2.60;;
53022;SDS011;38913;44.338;11.206;2023-05-19T09:59:49;4.55;;;3.58;;
53022;SDS011;38913;44.338;11.206;2023-05-19T10:02:15;3.95;;;2.42;;
53022;SDS011;38913;44.338;11.206;2023-05-19T10:04:41;3.88;;;2.65;;
53022;SDS011;38913;44.338;11.206;2023-05-19T10:07:07;3.40;;;3.03;;
53022;SDS011;38913;44.338;11.206;2023-05-19T10:09:33;3.78;;;2.72;;
53022;SDS011;38913;44.338;11.206;2023-05-19T10:12:00;3.35;;;2.80;;
53022;SDS011;38913;44.338;11.206;2023-05-19T10:14:26;3.10;;;2.80;;
53022;SDS011;38913;44.338;11.206;2023-05-19T10:16:53;5.07;;;2.60;;
53022;SDS011;38913;44.338;11.206;2023-05-19T10:19:22;3.35;;;2.33;;
53022;SDS011;38913;44.338;11.206;2023-05-19T10:21:48;3.08;;;2.22;;
53022;SDS011;38913;44.338;11.206;2023-05-19T10:24:13;3.72;;;2.60;;
53022;SDS011;38913;44.338;11.206;2023-05-19T10:26:39;3.63;;;2.43;;
53022;SDS011;38913;44.338;11.206;2023-05-19T10:29:06;3.28;;;2.40;;
53022;SDS011;38913;44.338;11.206;2023-05-19T10:31:31;4.63;;;2.58;;
53022;SDS011;38913;44.338;11.206;2023-05-19T10:36:32;4.18;;;2.88;;
53022;SDS011;38913;44.338;11.206;2023-05-19T10:39:05;4.35;;;3.13;;
53022;SDS011;38913;44.338;11.206;2023-05-19T10:41:45;5.63;;;2.80;;
53022;SDS011;38913;44.338;11.206;2023-05-19T10:46:54;4.20;;;2.60;;
53022;SDS011;38913;44.338;11.206;2023-05-19T10:49:19;3.72;;;2.88;;
53022;SDS011;38913;44.338;11.206;2023-05-19T10:51:45;4.03;;;2.70;;
53022;SDS011;38913;44.338;11.206;2023-05-19T10:54:11;3.45;;;2.28;;
53022;SDS011;38913;44.338;11.206;2023-05-19T10:56:41;3.95;;;2.63;;
53022;SDS011;38913;44.338;11.206;2023-05-19T10:59:07;2.50;;;2.30;;
53022;SDS011;38913;44.338;11.206;2023-05-19T11:01:52;3.17;;;2.60;;
53022;SDS011;38913;44.338;11.206;2023-05-19T11:04:18;2.63;;;2.40;;
53022;SDS011;38913;44.338;11.206;2023-05-19T11:06:44;2.80;;;2.42;;
53022;SDS011;38913;44.338;11.206;2023-05-19T11:09:16;4.53;;;2.65;;
53022;SDS011;38913;44.338;11.206;2023-05-19T11:14:20;3.58;;;2.80;;
53022;SDS011;38913;44.338;11.206;2023-05-19T11:16:47;2.88;;;2.55;;
53022;SDS011;38913;44.338;11.206;2023-05-19T11:19:17;3.95;;;2.88;;
53022;SDS011;38913;44.338;11.206;2023-05-19T11:24:31;3.97;;;3.50;;
53022;SDS011;38913;44.338;11.206;2023-05-19T11:26:57;4.68;;;3.20;;
53022;SDS011;38913;44.338;11.206;2023-05-19T11:29:22;4.30;;;3.47;;
53022;SDS011;38913;44.338;11.206;2023-05-19T11:31:47;4.18;;;3.10;;
53022;SDS011;38913;44.338;11.206;2023-05-19T11:34:13;7.13;;;3.70;;
53022;SDS011;38913;44.338;11.206;2023-05-19T11:36:39;4.63;;;3.40;;
53022;SDS011;38913;44.338;11.206;2023-05-19T11:39:05;5.95;;;3.50;;
53022;SDS011;38913;44.338;11.206;2023-05-19T11:41:30;3.40;;;3.10;;
53022;SDS011;38913;44.338;11.206;2023-05-19T11:43:55;4.07;;;3.15;;
53022;SDS011;38913;44.338;11.206;2023-05-19T11:46:21;3.70;;;2.90;;
53022;SDS011;38913;44.338;11.206;2023-05-19T11:48:46;4.63;;;2.97;;
53022;SDS011;38913;44.338;11.206;2023-05-19T11:51:12;3.33;;;3.00;;
53022;SDS011;38913;44.338;11.206;2023-05-19T11:53:37;4.70;;;2.80;;
53022;SDS011;38913;44.338;11.206;2023-05-19T11:56:04;4.45;;;2.85;;
53022;SDS011;38913;44.338;11.206;2023-05-19T11:58:29;3.15;;;2.60;;
53022;SDS011;38913;44.338;11.206;2023-05-19T12:00:55;4.10;;;2.70;;
53022;SDS011;38913;44.338;11.206;2023-05-19T12:03:20;3.22;;;2.88;;
53022;SDS011;38913;44.338;11.206;2023-05-19T12:05:46;3.63;;;3.03;;
53022;SDS011;38913;44.338;11.206;2023-05-19T12:08:12;4.68;;;3.20;;
53022;SDS011;38913;44.338;11.206;2023-05-19T12:10:38;3.17;;;2.40;;
53022;SDS011;38913;44.338;11.206;2023-05-19T12:13:04;2.95;;;2.65;;
53022;SDS011;38913;44.338;11.206;2023-05-19T12:15:30;4.43;;;3.22;;
53022;SDS011;38913;44.338;11.206;2023-05-19T12:17:56;2.50;;;2.30;;
53022;SDS011;38913;44.338;11.206;2023-05-19T12:20:23;3.85;;;2.15;;
53022;SDS011;38913;44.338;11.206;2023-05-19T12:22:48;3.00;;;2.20;;
53022;SDS011;38913;44.338;11.206;2023-05-19T12:25:15;3.88;;;2.15;;
53022;SDS011;38913;44.338;11.206;2023-05-19T12:27:41;3.30;;;2.40;;
53022;SDS011;38913;44.338;11.206;2023-05-19T12:30:07;3.17;;;2.40;;
53022;SDS011;38913;44.338;11.206;2023-05-19T12:32:32;3.40;;;2.60;;
53022;SDS011;38913;44.338;11.206;2023-05-19T12:35:00;4.25;;;2.80;;
53022;SDS011;38913;44.338;11.206;2023-05-19T12:37:26;5.63;;;2.88;;
53022;SDS011;38913;44.338;11.206;2023-05-19T12:39:51;3.17;;;2.67;;
53022;SDS011;38913;44.338;11.206;2023-05-19T12:42:17;2.87;;;2.53;;
53022;SDS011;38913;44.338;11.206;2023-05-19T12:44:46;2.93;;;2.20;;
53022;SDS011;38913;44.338;11.206;2023-05-19T12:47:12;3.35;;;2.20;;
53022;SDS011;38913;44.338;11.206;2023-05-19T12:49:52;2.45;;;1.90;;
53022;SDS011;38913;44.338;11.206;2023-05-19T12:52:17;1.83;;;1.65;;
53022;SDS011;38913;44.338;11.206;2023-05-19T12:54:43;3.65;;;1.70;;
53022;SDS011;38913;44.338;11.206;2023-05-19T12:57:10;3.65;;;1.92;;
53022;SDS011;38913;44.338;11.206;2023-05-19T12:59:35;3.47;;;2.03;;
53022;SDS011;38913;44.338;11.206;2023-05-19T13:02:00;2.23;;;1.90;;
53022;SDS011;38913;44.338;11.206;2023-05-19T13:04:26;4.07;;;1.90;;
53022;SDS011;38913;44.338;11.206;2023-05-19T13:06:52;3.22;;;2.30;;
53022;SDS011;38913;44.338;11.206;2023-05-19T13:09:18;1.92;;;1.67;;
53022;SDS011;38913;44.338;11.206;2023-05-19T13:11:44;2.83;;;2.00;;
53022;SDS011;38913;44.338;11.206;2023-05-19T13:14:12;3.72;;;2.10;;
53022;SDS011;38913;44.338;11.206;2023-05-19T13:16:39;2.33;;;1.92;;
53022;SDS011;38913;44.338;11.206;2023-05-19T13:19:04;2.57;;;2.13;;
53022;SDS011;38913;44.338;11.206;2023-05-19T13:21:30;2.15;;;1.67;;
53022;SDS011;38913;44.338;11.206;2023-05-19T13:23:55;2.83;;;1.90;;
53022;SDS011;38913;44.338;11.206;2023-05-19T13:26:20;2.17;;;1.45;;
53022;SDS011;38913;44.338;11.206;2023-05-19T13:28:47;2.15;;;1.35;;
53022;SDS011;38913;44.338;11.206;2023-05-19T13:31:13;1.67;;;1.38;;
53022;SDS011;38913;44.338;11.206;2023-05-19T13:33:38;2.85;;;1.63;;
53022;SDS011;38913;44.338;11.206;2023-05-19T13:36:03;3.37;;;1.77;;
53022;SDS011;38913;44.338;11.206;2023-05-19T13:38:28;3.22;;;1.70;;
53022;SDS011;38913;44.338;11.206;2023-05-19T13:40:54;6.15;;;4.13;;
53022;SDS011;38913;44.338;11.206;2023-05-19T13:43:19;4.77;;;3.47;;
53022;SDS011;38913;44.338;11.206;2023-05-19T13:45:45;4.80;;;2.63;;
53022;SDS011;38913;44.338;11.206;2023-05-19T13:48:10;4.78;;;3.22;;
53022;SDS011;38913;44.338;11.206;2023-05-19T13:50:36;4.65;;;2.40;;
53022;SDS011;38913;44.338;11.206;2023-05-19T13:53:01;4.90;;;1.92;;
53022;SDS011;38913;44.338;11.206;2023-05-19T13:55:27;3.20;;;2.65;;
53022;SDS011;38913;44.338;11.206;2023-05-19T13:57:52;2.78;;;1.88;;
53022;SDS011;38913;44.338;11.206;2023-05-19T14:00:18;4.70;;;2.17;;
53022;SDS011;38913;44.338;11.206;2023-05-19T14:02:43;5.65;;;2.97;;
53022;SDS011;38913;44.338;11.206;2023-05-19T14:05:08;2.70;;;1.98;;
53022;SDS011;38913;44.338;11.206;2023-05-19T14:07:34;4.00;;;2.42;;
53022;SDS011;38913;44.338;11.206;2023-05-19T14:09:59;2.45;;;2.10;;
53022;SDS011;38913;44.338;11.206;2023-05-19T14:12:25;2.90;;;2.20;;
53022;SDS011;38913;44.338;11.206;2023-05-19T14:14:50;5.45;;;2.45;;
53022;SDS011;38913;44.338;11.206;2023-05-19T14:17:15;5.17;;;2.40;;
53022;SDS011;38913;44.338;11.206;2023-05-19T14:19:40;3.67;;;2.10;;
53022;SDS011;38913;44.338;11.206;2023-05-19T14:22:06;2.80;;;1.55;;
53022;SDS011;38913;44.338;11.206;2023-05-19T14:24:31;3.42;;;2.28;;
53022;SDS011;38913;44.338;11.206;2023-05-19T14:26:57;2.47;;;1.77;;
53022;SDS011;38913;44.338;11.206;2023-05-19T14:29:22;3.43;;;1.53;;
53022;SDS011;38913;44.338;11.206;2023-05-19T14:31:47;2.60;;;1.43;;
53022;SDS011;38913;44.338;11.206;2023-05-19T14:34:12;2.50;;;1.33;;
53022;SDS011;38913;44.338;11.206;2023-05-19T14:36:41;4.38;;;1.52;;
53022;SDS011;38913;44.338;11.206;2023-05-19T14:39:07;2.93;;;1.67;;
53022;SDS011;38913;44.338;11.206;2023-05-19T14:41:32;3.55;;;1.67;;
53022;SDS011;38913;44.338;11.206;2023-05-19T14:43:57;1.43;;;1.20;;
53022;SDS011;38913;44.338;11.206;2023-05-19T14:46:22;2.70;;;1.70;;
53022;SDS011;38913;44.338;11.206;2023-05-19T14:48:47;2.27;;;1.40;;
53022;SDS011;38913;44.338;11.206;2023-05-19T14:51:13;4.38;;;1.50;;
53022;SDS011;38913;44.338;11.206;2023-05-19T14:53:38;3.00;;;1.70;;